sensor_id;sensor_type;location;lat;lon;timestamp;P1;durP1;ratioP1;P2;durP2;ratioP2
48199;SDS011;33990;44.602;10.976;2022-09-28T00:03:36;4.90;;;2.40;;
48199;SDS011;33990;44.602;10.976;2022-09-28T00:06:07;3.58;;;2.53;;
48199;SDS011;33990;44.602;10.976;2022-09-28T00:08:36;4.47;;;2.47;;
48199;SDS011;33990;44.602;10.976;2022-09-28T00:11:04;4.45;;;2.75;;
48199;SDS011;33990;44.602;10.976;2022-09-28T00:13:33;6.60;;;2.63;;
48199;SDS011;33990;44.602;10.976;2022-09-28T00:16:12;6.00;;;2.72;;
48199;SDS011;33990;44.602;10.976;2022-09-28T00:18:42;5.10;;;2.60;;
48199;SDS011;33990;44.602;10.976;2022-09-28T00:21:13;5.60;;;2.33;;
48199;SDS011;33990;44.602;10.976;2022-09-28T00:23:42;4.55;;;2.72;;
48199;SDS011;33990;44.602;10.976;2022-09-28T00:26:29;3.70;;;2.70;;
48199;SDS011;33990;44.602;10.976;2022-09-28T00:28:59;4.00;;;2.45;;
48199;SDS011;33990;44.602;10.976;2022-09-28T00:31:29;4.03;;;2.95;;
48199;SDS011;33990;44.602;10.976;2022-09-28T00:34:01;5.40;;;2.30;;
48199;SDS011;33990;44.602;10.976;2022-09-28T00:36:31;5.65;;;2.60;;
48199;SDS011;33990;44.602;10.976;2022-09-28T00:39:02;4.35;;;2.58;;
48199;SDS011;33990;44.602;10.976;2022-09-28T00:41:32;3.90;;;2.30;;
48199;SDS011;33990;44.602;10.976;2022-09-28T00:47:20;3.90;;;2.08;;
48199;SDS011;33990;44.602;10.976;2022-09-28T00:55:40;4.82;;;2.88;;
48199;SDS011;33990;44.602;10.976;2022-09-28T00:58:13;6.22;;;2.38;;
48199;SDS011;33990;44.602;10.976;2022-09-28T01:00:44;4.27;;;2.13;;
48199;SDS011;33990;44.602;10.976;2022-09-28T01:03:11;4.25;;;2.25;;
48199;SDS011;33990;44.602;10.976;2022-09-28T01:05:40;3.65;;;2.50;;
48199;SDS011;33990;44.602;10.976;2022-09-28T01:08:07;4.10;;;2.10;;
48199;SDS011;33990;44.602;10.976;2022-09-28T01:10:36;3.63;;;2.00;;
48199;SDS011;33990;44.602;10.976;2022-09-28T01:13:06;2.72;;;2.20;;
48199;SDS011;33990;44.602;10.976;2022-09-28T01:15:34;3.65;;;2.47;;
48199;SDS011;33990;44.602;10.976;2022-09-28T01:21:19;3.78;;;2.25;;
48199;SDS011;33990;44.602;10.976;2022-09-28T01:26:56;6.05;;;2.55;;
48199;SDS011;33990;44.602;10.976;2022-09-28T01:32:00;4.57;;;2.25;;
48199;SDS011;33990;44.602;10.976;2022-09-28T01:37:30;4.88;;;2.10;;
48199;SDS011;33990;44.602;10.976;2022-09-28T01:40:08;3.03;;;2.05;;
48199;SDS011;33990;44.602;10.976;2022-09-28T01:42:38;2.78;;;2.03;;
48199;SDS011;33990;44.602;10.976;2022-09-28T01:45:10;3.38;;;2.50;;
48199;SDS011;33990;44.602;10.976;2022-09-28T01:47:44;4.13;;;2.83;;
48199;SDS011;33990;44.602;10.976;2022-09-28T01:50:15;3.53;;;2.55;;
48199;SDS011;33990;44.602;10.976;2022-09-28T01:52:47;4.07;;;2.60;;
48199;SDS011;33990;44.602;10.976;2022-09-28T02:00:38;3.55;;;2.22;;
48199;SDS011;33990;44.602;10.976;2022-09-28T02:05:56;3.97;;;2.53;;
48199;SDS011;33990;44.602;10.976;2022-09-28T02:08:30;3.50;;;2.45;;
48199;SDS011;33990;44.602;10.976;2022-09-28T02:13:41;3.90;;;2.72;;
48199;SDS011;33990;44.602;10.976;2022-09-28T02:16:33;2.95;;;2.30;;
48199;SDS011;33990;44.602;10.976;2022-09-28T02:19:05;5.05;;;2.10;;
48199;SDS011;33990;44.602;10.976;2022-09-28T02:22:02;3.80;;;2.53;;
48199;SDS011;33990;44.602;10.976;2022-09-28T02:27:41;2.95;;;2.00;;
48199;SDS011;33990;44.602;10.976;2022-09-28T02:30:14;4.35;;;2.65;;
48199;SDS011;33990;44.602;10.976;2022-09-28T02:32:42;4.95;;;2.50;;
48199;SDS011;33990;44.602;10.976;2022-09-28T02:35:13;3.88;;;2.58;;
48199;SDS011;33990;44.602;10.976;2022-09-28T02:37:43;6.20;;;2.72;;
48199;SDS011;33990;44.602;10.976;2022-09-28T02:40:13;4.25;;;2.40;;
48199;SDS011;33990;44.602;10.976;2022-09-28T02:48:41;3.45;;;2.10;;
48199;SDS011;33990;44.602;10.976;2022-09-28T03:05:19;3.53;;;2.13;;
48199;SDS011;33990;44.602;10.976;2022-09-28T03:08:11;4.25;;;2.55;;
48199;SDS011;33990;44.602;10.976;2022-09-28T03:10:48;4.75;;;2.75;;
48199;SDS011;33990;44.602;10.976;2022-09-28T03:13:50;3.08;;;2.33;;
48199;SDS011;33990;44.602;10.976;2022-09-28T03:16:23;3.30;;;1.92;;
48199;SDS011;33990;44.602;10.976;2022-09-28T03:18:50;3.00;;;2.60;;
48199;SDS011;33990;44.602;10.976;2022-09-28T03:21:18;3.33;;;2.03;;
48199;SDS011;33990;44.602;10.976;2022-09-28T03:23:45;3.08;;;2.20;;
48199;SDS011;33990;44.602;10.976;2022-09-28T03:26:15;3.72;;;2.47;;
48199;SDS011;33990;44.602;10.976;2022-09-28T03:28:42;3.63;;;2.55;;
48199;SDS011;33990;44.602;10.976;2022-09-28T03:31:16;3.90;;;2.42;;
48199;SDS011;33990;44.602;10.976;2022-09-28T03:33:43;4.93;;;3.13;;
48199;SDS011;33990;44.602;10.976;2022-09-28T03:36:11;3.20;;;2.20;;
48199;SDS011;33990;44.602;10.976;2022-09-28T03:38:40;2.88;;;2.25;;
48199;SDS011;33990;44.602;10.976;2022-09-28T03:41:09;6.28;;;2.55;;
48199;SDS011;33990;44.602;10.976;2022-09-28T03:43:40;5.53;;;2.30;;
48199;SDS011;33990;44.602;10.976;2022-09-28T03:46:07;3.95;;;3.00;;
48199;SDS011;33990;44.602;10.976;2022-09-28T03:48:40;4.28;;;2.50;;
48199;SDS011;33990;44.602;10.976;2022-09-28T03:51:10;3.35;;;2.25;;
48199;SDS011;33990;44.602;10.976;2022-09-28T03:53:38;4.65;;;2.40;;
48199;SDS011;33990;44.602;10.976;2022-09-28T03:56:07;3.75;;;2.10;;
48199;SDS011;33990;44.602;10.976;2022-09-28T03:58:38;4.68;;;2.47;;
48199;SDS011;33990;44.602;10.976;2022-09-28T04:01:08;5.32;;;2.63;;
48199;SDS011;33990;44.602;10.976;2022-09-28T04:03:45;2.83;;;2.22;;
48199;SDS011;33990;44.602;10.976;2022-09-28T04:06:13;3.75;;;2.63;;
48199;SDS011;33990;44.602;10.976;2022-09-28T04:08:41;4.13;;;2.75;;
48199;SDS011;33990;44.602;10.976;2022-09-28T04:11:09;5.60;;;2.90;;
48199;SDS011;33990;44.602;10.976;2022-09-28T04:13:37;6.45;;;2.42;;
48199;SDS011;33990;44.602;10.976;2022-09-28T04:16:08;3.72;;;2.65;;
48199;SDS011;33990;44.602;10.976;2022-09-28T04:18:37;5.10;;;2.83;;
48199;SDS011;33990;44.602;10.976;2022-09-28T04:21:24;5.63;;;2.90;;
48199;SDS011;33990;44.602;10.976;2022-09-28T04:24:00;5.10;;;2.47;;
48199;SDS011;33990;44.602;10.976;2022-09-28T04:26:27;5.30;;;2.50;;
48199;SDS011;33990;44.602;10.976;2022-09-28T04:28:56;4.68;;;2.80;;
48199;SDS011;33990;44.602;10.976;2022-09-28T04:32:11;4.93;;;2.30;;
48199;SDS011;33990;44.602;10.976;2022-09-28T04:34:39;3.85;;;2.03;;
48199;SDS011;33990;44.602;10.976;2022-09-28T04:37:10;2.50;;;2.10;;
48199;SDS011;33990;44.602;10.976;2022-09-28T04:39:38;3.40;;;2.50;;
48199;SDS011;33990;44.602;10.976;2022-09-28T04:42:12;2.83;;;2.08;;
48199;SDS011;33990;44.602;10.976;2022-09-28T04:44:39;3.83;;;2.17;;
48199;SDS011;33990;44.602;10.976;2022-09-28T04:47:08;2.63;;;2.03;;
48199;SDS011;33990;44.602;10.976;2022-09-28T04:49:41;3.45;;;2.13;;
48199;SDS011;33990;44.602;10.976;2022-09-28T04:52:24;4.13;;;3.00;;
48199;SDS011;33990;44.602;10.976;2022-09-28T04:54:53;2.97;;;2.35;;
48199;SDS011;33990;44.602;10.976;2022-09-28T04:57:20;3.78;;;2.60;;
48199;SDS011;33990;44.602;10.976;2022-09-28T04:59:47;5.18;;;2.28;;
48199;SDS011;33990;44.602;10.976;2022-09-28T05:02:15;4.65;;;2.60;;
48199;SDS011;33990;44.602;10.976;2022-09-28T05:05:01;3.13;;;2.28;;
48199;SDS011;33990;44.602;10.976;2022-09-28T05:07:37;3.03;;;2.10;;
48199;SDS011;33990;44.602;10.976;2022-09-28T05:10:05;2.70;;;2.15;;
48199;SDS011;33990;44.602;10.976;2022-09-28T05:12:34;3.35;;;2.40;;
48199;SDS011;33990;44.602;10.976;2022-09-28T05:15:02;5.35;;;2.08;;
48199;SDS011;33990;44.602;10.976;2022-09-28T05:17:30;3.03;;;2.20;;
48199;SDS011;33990;44.602;10.976;2022-09-28T05:20:08;4.50;;;2.58;;
48199;SDS011;33990;44.602;10.976;2022-09-28T05:22:35;2.67;;;2.13;;
48199;SDS011;33990;44.602;10.976;2022-09-28T05:25:04;3.40;;;2.28;;
48199;SDS011;33990;44.602;10.976;2022-09-28T05:27:44;3.55;;;2.33;;
48199;SDS011;33990;44.602;10.976;2022-09-28T05:30:28;5.05;;;2.40;;
48199;SDS011;33990;44.602;10.976;2022-09-28T05:33:14;4.00;;;2.85;;
48199;SDS011;33990;44.602;10.976;2022-09-28T05:35:46;3.35;;;1.83;;
48199;SDS011;33990;44.602;10.976;2022-09-28T05:38:20;3.88;;;2.30;;
48199;SDS011;33990;44.602;10.976;2022-09-28T05:40:47;3.30;;;2.50;;
48199;SDS011;33990;44.602;10.976;2022-09-28T05:43:14;4.70;;;2.28;;
48199;SDS011;33990;44.602;10.976;2022-09-28T05:45:42;4.97;;;2.45;;
48199;SDS011;33990;44.602;10.976;2022-09-28T05:48:10;5.70;;;2.20;;
48199;SDS011;33990;44.602;10.976;2022-09-28T05:50:37;4.65;;;2.53;;
48199;SDS011;33990;44.602;10.976;2022-09-28T05:53:06;4.60;;;2.20;;
48199;SDS011;33990;44.602;10.976;2022-09-28T05:55:36;3.90;;;2.22;;
48199;SDS011;33990;44.602;10.976;2022-09-28T05:58:05;3.53;;;2.10;;
48199;SDS011;33990;44.602;10.976;2022-09-28T06:00:34;3.72;;;2.58;;
48199;SDS011;33990;44.602;10.976;2022-09-28T06:03:06;2.38;;;1.85;;
48199;SDS011;33990;44.602;10.976;2022-09-28T06:05:36;3.15;;;1.80;;
48199;SDS011;33990;44.602;10.976;2022-09-28T06:08:06;5.43;;;2.50;;
48199;SDS011;33990;44.602;10.976;2022-09-28T06:10:34;5.05;;;2.70;;
48199;SDS011;33990;44.602;10.976;2022-09-28T06:13:02;4.45;;;2.53;;
48199;SDS011;33990;44.602;10.976;2022-09-28T06:15:29;3.15;;;2.13;;
48199;SDS011;33990;44.602;10.976;2022-09-28T06:18:00;3.13;;;2.35;;
48199;SDS011;33990;44.602;10.976;2022-09-28T06:21:00;3.63;;;2.25;;
48199;SDS011;33990;44.602;10.976;2022-09-28T06:23:34;4.97;;;2.45;;
48199;SDS011;33990;44.602;10.976;2022-09-28T06:26:02;3.30;;;2.40;;
48199;SDS011;33990;44.602;10.976;2022-09-28T06:28:29;3.05;;;2.35;;
48199;SDS011;33990;44.602;10.976;2022-09-28T06:30:58;4.47;;;2.35;;
48199;SDS011;33990;44.602;10.976;2022-09-28T06:33:27;2.90;;;1.95;;
48199;SDS011;33990;44.602;10.976;2022-09-28T06:35:54;3.88;;;2.40;;
48199;SDS011;33990;44.602;10.976;2022-09-28T06:38:24;3.80;;;2.40;;
48199;SDS011;33990;44.602;10.976;2022-09-28T06:40:52;4.70;;;2.38;;
48199;SDS011;33990;44.602;10.976;2022-09-28T06:43:21;4.47;;;2.30;;
48199;SDS011;33990;44.602;10.976;2022-09-28T06:46:17;5.50;;;2.47;;
48199;SDS011;33990;44.602;10.976;2022-09-28T06:48:54;6.30;;;2.50;;
48199;SDS011;33990;44.602;10.976;2022-09-28T06:51:44;4.65;;;2.55;;
48199;SDS011;33990;44.602;10.976;2022-09-28T06:54:20;4.75;;;2.40;;
48199;SDS011;33990;44.602;10.976;2022-09-28T06:57:01;4.53;;;2.25;;
48199;SDS011;33990;44.602;10.976;2022-09-28T06:59:28;3.35;;;2.53;;
48199;SDS011;33990;44.602;10.976;2022-09-28T07:01:59;2.97;;;2.20;;
48199;SDS011;33990;44.602;10.976;2022-09-28T07:04:49;4.85;;;2.40;;
48199;SDS011;33990;44.602;10.976;2022-09-28T07:07:35;5.60;;;2.80;;
48199;SDS011;33990;44.602;10.976;2022-09-28T07:10:23;7.68;;;2.70;;
48199;SDS011;33990;44.602;10.976;2022-09-28T07:13:17;4.40;;;2.50;;
48199;SDS011;33990;44.602;10.976;2022-09-28T07:16:06;4.90;;;2.45;;
48199;SDS011;33990;44.602;10.976;2022-09-28T07:18:34;5.07;;;2.45;;
48199;SDS011;33990;44.602;10.976;2022-09-28T07:21:01;7.15;;;2.50;;
48199;SDS011;33990;44.602;10.976;2022-09-28T07:23:30;3.75;;;2.40;;
48199;SDS011;33990;44.602;10.976;2022-09-28T07:26:22;7.78;;;2.80;;
48199;SDS011;33990;44.602;10.976;2022-09-28T07:29:10;7.90;;;2.30;;
48199;SDS011;33990;44.602;10.976;2022-09-28T07:32:10;4.90;;;2.10;;
48199;SDS011;33990;44.602;10.976;2022-09-28T07:34:50;6.38;;;3.50;;
48199;SDS011;33990;44.602;10.976;2022-09-28T07:37:41;4.45;;;3.05;;
48199;SDS011;33990;44.602;10.976;2022-09-28T07:40:09;5.35;;;3.13;;
48199;SDS011;33990;44.602;10.976;2022-09-28T07:42:55;9.27;;;3.00;;
48199;SDS011;33990;44.602;10.976;2022-09-28T07:45:29;4.75;;;3.55;;
48199;SDS011;33990;44.602;10.976;2022-09-28T07:48:01;8.00;;;3.40;;
48199;SDS011;33990;44.602;10.976;2022-09-28T07:50:47;4.13;;;2.42;;
48199;SDS011;33990;44.602;10.976;2022-09-28T07:53:37;4.30;;;2.50;;
48199;SDS011;33990;44.602;10.976;2022-09-28T07:56:28;8.70;;;2.92;;
48199;SDS011;33990;44.602;10.976;2022-09-28T07:59:04;6.15;;;2.72;;
48199;SDS011;33990;44.602;10.976;2022-09-28T08:01:50;5.10;;;3.13;;
48199;SDS011;33990;44.602;10.976;2022-09-28T08:04:17;4.05;;;2.75;;
48199;SDS011;33990;44.602;10.976;2022-09-28T08:06:45;5.18;;;2.80;;
48199;SDS011;33990;44.602;10.976;2022-09-28T08:09:14;5.38;;;2.83;;
48199;SDS011;33990;44.602;10.976;2022-09-28T09:49:56;8.07;;;5.10;;
48199;SDS011;33990;44.602;10.976;2022-09-28T09:52:51;8.15;;;4.95;;
48199;SDS011;33990;44.602;10.976;2022-09-28T09:58:39;8.55;;;5.10;;
48199;SDS011;33990;44.602;10.976;2022-09-28T10:01:18;8.98;;;5.22;;
48199;SDS011;33990;44.602;10.976;2022-09-28T10:07:02;22.48;;;20.70;;
48199;SDS011;33990;44.602;10.976;2022-09-28T10:09:35;9.70;;;7.57;;
48199;SDS011;33990;44.602;10.976;2022-09-28T10:12:31;17.85;;;16.60;;
48199;SDS011;33990;44.602;10.976;2022-09-28T10:15:00;12.77;;;11.65;;
48199;SDS011;33990;44.602;10.976;2022-09-28T10:17:39;10.90;;;9.48;;
48199;SDS011;33990;44.602;10.976;2022-09-28T10:23:20;6.85;;;4.90;;
48199;SDS011;33990;44.602;10.976;2022-09-28T10:25:51;6.18;;;3.78;;
48199;SDS011;33990;44.602;10.976;2022-09-28T10:28:34;5.78;;;3.67;;
48199;SDS011;33990;44.602;10.976;2022-09-28T10:34:25;6.93;;;3.88;;
48199;SDS011;33990;44.602;10.976;2022-09-28T10:37:03;4.60;;;3.38;;
48199;SDS011;33990;44.602;10.976;2022-09-28T10:39:54;5.18;;;3.35;;
48199;SDS011;33990;44.602;10.976;2022-09-28T10:42:29;5.55;;;3.10;;
48199;SDS011;33990;44.602;10.976;2022-09-28T10:47:51;4.90;;;3.10;;
48199;SDS011;33990;44.602;10.976;2022-09-28T10:50:25;7.05;;;3.40;;
48199;SDS011;33990;44.602;10.976;2022-09-28T10:53:09;4.63;;;3.30;;
48199;SDS011;33990;44.602;10.976;2022-09-28T10:56:20;5.50;;;3.28;;
48199;SDS011;33990;44.602;10.976;2022-09-28T10:58:58;6.43;;;3.25;;
48199;SDS011;33990;44.602;10.976;2022-09-28T11:01:41;5.00;;;3.33;;
48199;SDS011;33990;44.602;10.976;2022-09-28T11:04:13;7.80;;;3.25;;
48199;SDS011;33990;44.602;10.976;2022-09-28T11:06:47;5.10;;;3.22;;
48199;SDS011;33990;44.602;10.976;2022-09-28T11:09:26;3.92;;;2.70;;
48199;SDS011;33990;44.602;10.976;2022-09-28T11:12:02;5.50;;;3.63;;
48199;SDS011;33990;44.602;10.976;2022-09-28T11:17:30;6.35;;;3.00;;
48199;SDS011;33990;44.602;10.976;2022-09-28T11:20:00;5.47;;;2.70;;
48199;SDS011;33990;44.602;10.976;2022-09-28T11:22:59;3.53;;;2.85;;
48199;SDS011;33990;44.602;10.976;2022-09-28T11:26:07;5.03;;;3.15;;
48199;SDS011;33990;44.602;10.976;2022-09-28T11:28:35;7.03;;;2.92;;
48199;SDS011;33990;44.602;10.976;2022-09-28T11:31:11;5.05;;;2.90;;
48199;SDS011;33990;44.602;10.976;2022-09-28T11:34:03;6.95;;;2.75;;
48199;SDS011;33990;44.602;10.976;2022-09-28T11:37:03;7.30;;;3.30;;
48199;SDS011;33990;44.602;10.976;2022-09-28T11:40:19;7.32;;;3.50;;
48199;SDS011;33990;44.602;10.976;2022-09-28T11:45:47;4.18;;;3.13;;
48199;SDS011;33990;44.602;10.976;2022-09-28T11:48:17;4.00;;;2.63;;
48199;SDS011;33990;44.602;10.976;2022-09-28T11:50:57;6.30;;;3.35;;
48199;SDS011;33990;44.602;10.976;2022-09-28T11:53:44;5.57;;;3.03;;
48199;SDS011;33990;44.602;10.976;2022-09-28T11:59:03;5.72;;;3.67;;
48199;SDS011;33990;44.602;10.976;2022-09-28T12:01:54;4.65;;;3.00;;
48199;SDS011;33990;44.602;10.976;2022-09-28T12:04:42;6.45;;;2.90;;
48199;SDS011;33990;44.602;10.976;2022-09-28T12:09:53;7.25;;;3.05;;
48199;SDS011;33990;44.602;10.976;2022-09-28T12:15:04;4.65;;;2.65;;
48199;SDS011;33990;44.602;10.976;2022-09-28T12:17:44;9.02;;;3.10;;
48199;SDS011;33990;44.602;10.976;2022-09-28T12:25:48;7.63;;;2.85;;
48199;SDS011;33990;44.602;10.976;2022-09-28T12:28:34;4.43;;;2.50;;
48199;SDS011;33990;44.602;10.976;2022-09-28T12:33:47;5.68;;;2.65;;
48199;SDS011;33990;44.602;10.976;2022-09-28T12:36:26;7.43;;;2.65;;
48199;SDS011;33990;44.602;10.976;2022-09-28T12:51:27;5.57;;;3.58;;
48199;SDS011;33990;44.602;10.976;2022-09-28T13:00:10;5.03;;;3.10;;
48199;SDS011;33990;44.602;10.976;2022-09-28T13:10:40;4.78;;;2.90;;
48199;SDS011;33990;44.602;10.976;2022-09-28T13:23:45;6.30;;;3.05;;
48199;SDS011;33990;44.602;10.976;2022-09-28T13:28:55;4.65;;;3.05;;
48199;SDS011;33990;44.602;10.976;2022-09-28T13:31:30;5.15;;;3.05;;
48199;SDS011;33990;44.602;10.976;2022-09-28T13:34:03;4.57;;;2.42;;
48199;SDS011;33990;44.602;10.976;2022-09-28T13:38:59;4.18;;;2.70;;
48199;SDS011;33990;44.602;10.976;2022-09-28T13:41:36;4.57;;;2.33;;
48199;SDS011;33990;44.602;10.976;2022-09-28T14:16:34;10.05;;;3.58;;
48199;SDS011;33990;44.602;10.976;2022-09-28T14:21:56;5.43;;;3.00;;
48199;SDS011;33990;44.602;10.976;2022-09-28T14:30:25;5.97;;;3.30;;
48199;SDS011;33990;44.602;10.976;2022-09-28T14:33:00;8.15;;;2.67;;
48199;SDS011;33990;44.602;10.976;2022-09-28T14:38:15;3.10;;;2.60;;
48199;SDS011;33990;44.602;10.976;2022-09-28T14:41:04;7.57;;;3.00;;
48199;SDS011;33990;44.602;10.976;2022-09-28T14:48:42;6.90;;;3.22;;
48199;SDS011;33990;44.602;10.976;2022-09-28T14:53:53;5.00;;;2.45;;
48199;SDS011;33990;44.602;10.976;2022-09-28T14:56:26;4.43;;;2.60;;
48199;SDS011;33990;44.602;10.976;2022-09-28T14:58:58;4.55;;;2.60;;
48199;SDS011;33990;44.602;10.976;2022-09-28T15:01:26;7.63;;;2.83;;
48199;SDS011;33990;44.602;10.976;2022-09-28T15:03:54;7.95;;;2.75;;
48199;SDS011;33990;44.602;10.976;2022-09-28T15:06:25;5.45;;;2.35;;
48199;SDS011;33990;44.602;10.976;2022-09-28T15:08:55;3.63;;;2.40;;
48199;SDS011;33990;44.602;10.976;2022-09-28T15:11:23;6.13;;;2.90;;
48199;SDS011;33990;44.602;10.976;2022-09-28T15:14:03;6.47;;;3.10;;
48199;SDS011;33990;44.602;10.976;2022-09-28T15:16:32;9.70;;;3.22;;
48199;SDS011;33990;44.602;10.976;2022-09-28T15:21:48;9.05;;;3.28;;
48199;SDS011;33990;44.602;10.976;2022-09-28T15:26:50;4.47;;;2.70;;
48199;SDS011;33990;44.602;10.976;2022-09-28T15:29:19;5.75;;;2.88;;
48199;SDS011;33990;44.602;10.976;2022-09-28T15:31:48;7.35;;;3.25;;
48199;SDS011;33990;44.602;10.976;2022-09-28T15:37:21;5.47;;;2.70;;
48199;SDS011;33990;44.602;10.976;2022-09-28T15:39:51;8.60;;;3.17;;
48199;SDS011;33990;44.602;10.976;2022-09-28T15:42:20;14.75;;;3.50;;
48199;SDS011;33990;44.602;10.976;2022-09-28T15:52:56;5.57;;;2.72;;
48199;SDS011;33990;44.602;10.976;2022-09-28T15:56:01;4.28;;;2.83;;
48199;SDS011;33990;44.602;10.976;2022-09-28T15:58:25;10.07;;;2.60;;
48199;SDS011;33990;44.602;10.976;2022-09-28T16:01:17;6.28;;;2.85;;
48199;SDS011;33990;44.602;10.976;2022-09-28T16:03:46;5.22;;;2.53;;
48199;SDS011;33990;44.602;10.976;2022-09-28T16:06:14;6.97;;;2.80;;
48199;SDS011;33990;44.602;10.976;2022-09-28T16:08:45;4.22;;;2.83;;
48199;SDS011;33990;44.602;10.976;2022-09-28T16:11:24;6.25;;;2.58;;
48199;SDS011;33990;44.602;10.976;2022-09-28T16:14:05;7.60;;;3.03;;
48199;SDS011;33990;44.602;10.976;2022-09-28T16:16:46;5.88;;;2.50;;
48199;SDS011;33990;44.602;10.976;2022-09-28T16:21:52;7.28;;;2.80;;
48199;SDS011;33990;44.602;10.976;2022-09-28T16:24:22;6.07;;;3.15;;
48199;SDS011;33990;44.602;10.976;2022-09-28T16:27:06;4.72;;;2.50;;
48199;SDS011;33990;44.602;10.976;2022-09-28T16:32:58;7.38;;;2.75;;
48199;SDS011;33990;44.602;10.976;2022-09-28T16:38:11;5.28;;;2.92;;
48199;SDS011;33990;44.602;10.976;2022-09-28T16:40:44;5.30;;;2.83;;
48199;SDS011;33990;44.602;10.976;2022-09-28T16:43:28;4.28;;;3.30;;
48199;SDS011;33990;44.602;10.976;2022-09-28T16:45:58;6.50;;;3.42;;
48199;SDS011;33990;44.602;10.976;2022-09-28T16:48:28;7.80;;;4.22;;
48199;SDS011;33990;44.602;10.976;2022-09-28T16:50:57;6.32;;;3.30;;
48199;SDS011;33990;44.602;10.976;2022-09-28T16:53:25;13.35;;;3.70;;
48199;SDS011;33990;44.602;10.976;2022-09-28T16:56:11;7.13;;;3.55;;
48199;SDS011;33990;44.602;10.976;2022-09-28T16:58:39;9.93;;;3.70;;
48199;SDS011;33990;44.602;10.976;2022-09-28T17:01:08;9.52;;;3.92;;
48199;SDS011;33990;44.602;10.976;2022-09-28T17:03:37;9.40;;;3.78;;
48199;SDS011;33990;44.602;10.976;2022-09-28T17:06:08;8.15;;;3.88;;
48199;SDS011;33990;44.602;10.976;2022-09-28T17:08:37;7.50;;;3.35;;
48199;SDS011;33990;44.602;10.976;2022-09-28T17:11:07;6.38;;;3.22;;
48199;SDS011;33990;44.602;10.976;2022-09-28T17:13:43;9.30;;;3.80;;
48199;SDS011;33990;44.602;10.976;2022-09-28T17:16:13;7.07;;;3.67;;
48199;SDS011;33990;44.602;10.976;2022-09-28T17:18:40;11.45;;;4.97;;
48199;SDS011;33990;44.602;10.976;2022-09-28T17:21:11;10.10;;;4.53;;
48199;SDS011;33990;44.602;10.976;2022-09-28T17:23:44;12.85;;;6.13;;
48199;SDS011;33990;44.602;10.976;2022-09-28T17:26:34;9.32;;;5.30;;
48199;SDS011;33990;44.602;10.976;2022-09-28T17:29:02;16.25;;;5.28;;
48199;SDS011;33990;44.602;10.976;2022-09-28T17:31:32;9.10;;;4.28;;
48199;SDS011;33990;44.602;10.976;2022-09-28T17:34:00;13.82;;;5.30;;
48199;SDS011;33990;44.602;10.976;2022-09-28T17:36:28;10.95;;;4.70;;
48199;SDS011;33990;44.602;10.976;2022-09-28T17:38:56;8.10;;;4.10;;
48199;SDS011;33990;44.602;10.976;2022-09-28T17:41:26;8.70;;;4.57;;
48199;SDS011;33990;44.602;10.976;2022-09-28T17:43:54;10.73;;;4.00;;
48199;SDS011;33990;44.602;10.976;2022-09-28T17:48:50;8.65;;;4.85;;
48199;SDS011;33990;44.602;10.976;2022-09-28T17:51:18;9.38;;;4.60;;
48199;SDS011;33990;44.602;10.976;2022-09-28T17:53:48;7.97;;;3.92;;
48199;SDS011;33990;44.602;10.976;2022-09-28T17:56:16;8.57;;;4.57;;
48199;SDS011;33990;44.602;10.976;2022-09-28T17:58:45;9.40;;;4.00;;
48199;SDS011;33990;44.602;10.976;2022-09-28T18:01:16;7.68;;;4.05;;
48199;SDS011;33990;44.602;10.976;2022-09-28T18:03:45;10.93;;;4.28;;
48199;SDS011;33990;44.602;10.976;2022-09-28T18:06:14;10.65;;;4.25;;
48199;SDS011;33990;44.602;10.976;2022-09-28T18:08:50;7.57;;;4.32;;
48199;SDS011;33990;44.602;10.976;2022-09-28T18:11:18;10.52;;;4.18;;
48199;SDS011;33990;44.602;10.976;2022-09-28T18:13:47;8.20;;;3.78;;
48199;SDS011;33990;44.602;10.976;2022-09-28T18:16:16;5.63;;;4.10;;
48199;SDS011;33990;44.602;10.976;2022-09-28T18:18:45;9.70;;;4.68;;
48199;SDS011;33990;44.602;10.976;2022-09-28T18:21:13;8.80;;;4.28;;
48199;SDS011;33990;44.602;10.976;2022-09-28T18:23:43;7.22;;;3.60;;
48199;SDS011;33990;44.602;10.976;2022-09-28T18:26:13;7.93;;;4.70;;
48199;SDS011;33990;44.602;10.976;2022-09-28T18:28:42;6.22;;;3.70;;
48199;SDS011;33990;44.602;10.976;2022-09-28T18:31:12;10.07;;;4.10;;
48199;SDS011;33990;44.602;10.976;2022-09-28T18:33:43;7.20;;;3.45;;
48199;SDS011;33990;44.602;10.976;2022-09-28T18:36:11;9.93;;;4.00;;
48199;SDS011;33990;44.602;10.976;2022-09-28T18:38:38;6.78;;;3.65;;
48199;SDS011;33990;44.602;10.976;2022-09-28T18:41:12;6.90;;;3.63;;
48199;SDS011;33990;44.602;10.976;2022-09-28T18:43:47;8.13;;;3.75;;
48199;SDS011;33990;44.602;10.976;2022-09-28T18:46:17;7.20;;;3.27;;
48199;SDS011;33990;44.602;10.976;2022-09-28T18:48:45;6.57;;;3.90;;
48199;SDS011;33990;44.602;10.976;2022-09-28T18:51:16;6.78;;;3.80;;
48199;SDS011;33990;44.602;10.976;2022-09-28T18:53:45;8.98;;;3.72;;
48199;SDS011;33990;44.602;10.976;2022-09-28T18:56:14;7.90;;;3.58;;
48199;SDS011;33990;44.602;10.976;2022-09-28T18:58:47;6.80;;;3.63;;
48199;SDS011;33990;44.602;10.976;2022-09-28T19:01:19;10.20;;;3.80;;
48199;SDS011;33990;44.602;10.976;2022-09-28T19:03:59;7.63;;;4.30;;
48199;SDS011;33990;44.602;10.976;2022-09-28T19:06:27;4.57;;;3.35;;
48199;SDS011;33990;44.602;10.976;2022-09-28T19:08:57;9.52;;;3.60;;
48199;SDS011;33990;44.602;10.976;2022-09-28T19:11:27;5.60;;;3.65;;
48199;SDS011;33990;44.602;10.976;2022-09-28T19:13:57;6.68;;;3.13;;
48199;SDS011;33990;44.602;10.976;2022-09-28T19:16:27;7.50;;;3.67;;
48199;SDS011;33990;44.602;10.976;2022-09-28T19:18:59;10.07;;;4.50;;
48199;SDS011;33990;44.602;10.976;2022-09-28T19:21:29;6.78;;;3.75;;
48199;SDS011;33990;44.602;10.976;2022-09-28T19:24:00;9.93;;;3.95;;
48199;SDS011;33990;44.602;10.976;2022-09-28T19:26:30;5.32;;;3.63;;
48199;SDS011;33990;44.602;10.976;2022-09-28T19:29:00;7.88;;;3.78;;
48199;SDS011;33990;44.602;10.976;2022-09-28T19:31:28;8.98;;;3.50;;
48199;SDS011;33990;44.602;10.976;2022-09-28T19:33:57;10.02;;;4.15;;
48199;SDS011;33990;44.602;10.976;2022-09-28T19:36:26;5.55;;;3.15;;
48199;SDS011;33990;44.602;10.976;2022-09-28T19:38:55;8.00;;;3.63;;
48199;SDS011;33990;44.602;10.976;2022-09-28T19:41:31;7.65;;;3.78;;
48199;SDS011;33990;44.602;10.976;2022-09-28T19:44:21;6.63;;;3.10;;
48199;SDS011;33990;44.602;10.976;2022-09-28T19:46:55;7.47;;;3.42;;
48199;SDS011;33990;44.602;10.976;2022-09-28T19:49:26;5.30;;;3.10;;
48199;SDS011;33990;44.602;10.976;2022-09-28T19:52:01;6.93;;;3.33;;
48199;SDS011;33990;44.602;10.976;2022-09-28T19:54:43;4.68;;;3.13;;
48199;SDS011;33990;44.602;10.976;2022-09-28T19:57:18;5.18;;;3.00;;
48199;SDS011;33990;44.602;10.976;2022-09-28T19:59:47;11.18;;;3.70;;
48199;SDS011;33990;44.602;10.976;2022-09-28T20:02:19;7.03;;;3.47;;
48199;SDS011;33990;44.602;10.976;2022-09-28T20:04:49;6.13;;;3.30;;
48199;SDS011;33990;44.602;10.976;2022-09-28T20:07:16;4.93;;;3.15;;
48199;SDS011;33990;44.602;10.976;2022-09-28T20:09:45;9.52;;;3.10;;
48199;SDS011;33990;44.602;10.976;2022-09-28T20:12:17;6.28;;;3.30;;
48199;SDS011;33990;44.602;10.976;2022-09-28T20:14:48;7.03;;;3.28;;
48199;SDS011;33990;44.602;10.976;2022-09-28T20:17:19;5.60;;;3.50;;
48199;SDS011;33990;44.602;10.976;2022-09-28T20:19:49;6.32;;;3.08;;
48199;SDS011;33990;44.602;10.976;2022-09-28T20:22:19;5.28;;;3.25;;
48199;SDS011;33990;44.602;10.976;2022-09-28T20:24:48;3.50;;;2.55;;
48199;SDS011;33990;44.602;10.976;2022-09-28T20:27:16;6.05;;;3.35;;